| Date | Time | Temp. (oF) | Dew Point (oF) | Rel. Hum. (%) | Press. (in.) | Wind Dir. | Wind Speed (mph) | Hourly Rainfall (in.) |
|
|---|---|---|---|---|---|---|---|---|---|
| 1 | 06/28 | 00:00 | 79 | 72 | 81 | 30.22 | SSW | 1 | 0.00 |
| 2 | 06/27 | 23:00 | 80 | 73 | 80 | 30.22 | SW | 1 | 0.00 |
| 3 | 06/27 | 22:00 | 83 | 72 | 72 | 30.22 | SW | 0 | 0.00 |
| 4 | 06/27 | 21:00 | 86 | 71 | 62 | 30.20 | SSW | 2 | 0.00 |
| 5 | 06/27 | 20:00 | 88 | 70 | 56 | 30.19 | SW | 2 | 0.00 |
| 6 | 06/27 | 19:00 | 90 | 68 | 50 | 30.18 | S | 4 | 0.00 |
| 7 | 06/27 | 18:00 | 91 | 65 | 43 | 30.19 | SW | 1 | 0.00 |
| 8 | 06/27 | 17:00 | 92 | 66 | 43 | 30.21 | NW | 3 | 0.00 |
| 9 | 06/27 | 16:00 | 91 | 64 | 42 | 30.23 | W | 6 | 0.00 |
| 10 | 06/27 | 15:00 | 92 | 64 | 41 | 30.25 | SSW | 7 | 0.00 |
| 11 | 06/27 | 14:00 | 91 | 60 | 37 | 30.28 | WSW | 6 | 0.00 |
| 12 | 06/27 | 13:00 | 89 | 63 | 43 | 30.30 | N | 3 | 0.00 |
| 13 | 06/27 | 12:00 | 86 | 66 | 53 | 30.33 | NW | 3 | 0.00 |
| 14 | 06/27 | 11:00 | 84 | 70 | 64 | 30.34 | S | 4 | 0.00 |
| 15 | 06/27 | 10:00 | 80 | 70 | 72 | 30.35 | WSW | 4 | 0.00 |
| 16 | 06/27 | 09:00 | 77 | 69 | 77 | 30.37 | SW | 3 | 0.00 |
| 17 | 06/26 | 10:59 | 8 | -46 | 6 | 0.00 | NW | 1 | 1.00 |
| 18 | 06/26 | 10:58 | 82 | 63 | 53 | 30.37 | NW | 2 | 0.00 |
| 19 | 06/26 | 10:57 | 82 | 62 | 52 | 30.37 | NNW | 3 | 0.00 |
| 20 | 06/26 | 10:56 | 82 | 63 | 53 | 30.37 | W | 3 | 0.00 |
| 21 | 06/26 | 10:55 | 82 | 63 | 53 | 30.37 | WNW | 4 | 0.00 |
| 22 | miss | miss | miss | miss | miss | miss | miss | miss | |
| 23 | 06/26 | 10:53 | 82 | 63 | 53 | 30.37 | W | 5 | 0.00 |
| 24 | miss | miss | miss | miss | miss | miss | miss | miss | |
| 25 | 06/26 | 10:51 | 82 | 64 | 56 | 30.37 | NNW | 4 | 0.00 |
| 26 | miss | miss | miss | miss | miss | miss | miss | miss | |
| 27 | 06/26 | 10:51 | 82 | 64 | 56 | 30.37 | NNW | 4 | 0.00 |
| 28 | miss | miss | miss | miss | miss | miss | miss | miss | |
| 29 | 06/26 | 10:51 | 82 | 64 | 56 | 30.37 | NNW | 4 | 0.00 |
| 30 | miss | miss | miss | miss | miss | miss | miss | miss | |
| 31 | 06/26 | 10:51 | 82 | 64 | 56 | 30.37 | NNW | 4 | 0.00 |
| 32 | miss | miss | miss | miss | miss | miss | miss | miss | |
| 33 | 06/26 | 10:51 | 82 | 64 | 56 | 30.37 | NNW | 4 | 0.00 |
| 34 | miss | miss | miss | miss | miss | miss | miss | miss | |
| 35 | 06/26 | 10:51 | 82 | 64 | 56 | 30.37 | NNW | 4 | 0.00 |
| 36 | miss | miss | miss | miss | miss | miss | miss | miss | |
| 37 | 06/26 | 10:51 | 82 | 64 | 56 | 30.37 | NNW | 4 | 0.00 |
| 38 | miss | miss | miss | miss | miss | miss | miss | miss | |
| 39 | 06/26 | 10:00 | 79 | 66 | 66 | 30.37 | SW | 3 | 0.00 |
| 40 | 06/26 | 09:00 | 74 | 66 | 77 | 30.38 | W | 2 | 0.00 |
| 41 | 06/26 | 08:00 | 70 | 66 | 89 | 30.37 | S | 1 | 0.00 |
| 42 | 06/26 | 07:00 | 66 | 63 | 92 | 30.36 | WNW | 0 | 0.00 |
| 43 | 06/26 | 06:00 | 64 | 61 | 92 | 30.35 | SW | 0 | 0.00 |
| 44 | 06/26 | 05:00 | 65 | 62 | 92 | 30.33 | W | 0 | 0.00 |
| 45 | 06/26 | 04:00 | 66 | 63 | 92 | 30.32 | W | 0 | 0.00 |
| 46 | 06/26 | 03:00 | 67 | 63 | 89 | 30.30 | W | 0 | 0.00 |
| 47 | 06/26 | 02:00 | 69 | 64 | 87 | 30.30 | W | 0 | 0.00 |
| 48 | 06/26 | 01:00 | 70 | 65 | 85 | 30.30 | W | 0 | 0.00 |
| 49 | 06/26 | 00:00 | 71 | 65 | 82 | 30.29 | W | 0 | 0.00 |
| 50 | 06/25 | 23:00 | 73 | 65 | 77 | 30.28 | W | 0 | 0.00 |
| 51 | 06/25 | 22:00 | 75 | 64 | 71 | 30.26 | W | 0 | 0.00 |
| 52 | 06/25 | 21:00 | 79 | 63 | 59 | 30.23 | W | 0 | 0.00 |
| 53 | 06/25 | 20:00 | 82 | 60 | 48 | 30.21 | W | 2 | 0.00 |
| 54 | 06/25 | 19:00 | 84 | 59 | 44 | 30.19 | W | 1 | 0.00 |
| 55 | 06/25 | 18:00 | 84 | 58 | 42 | 30.20 | WSW | 2 | 0.00 |
| 56 | 06/25 | 17:00 | 85 | 60 | 44 | 30.20 | WSW | 4 | 0.00 |
| 57 | 06/25 | 16:00 | 83 | 60 | 47 | 30.22 | NNW | 7 | 0.00 |
| 58 | 06/25 | 15:00 | 82 | 60 | 48 | 30.23 | WNW | 1 | 0.00 |
| 59 | 06/25 | 14:00 | 83 | 60 | 47 | 30.24 | NNE | 5 | 0.00 |
| 60 | 06/25 | 13:00 | 81 | 61 | 52 | 30.25 | WNW | 4 | 0.00 |
| 61 | 06/25 | 12:00 | 79 | 60 | 54 | 30.26 | E | 1 | 0.00 |
| 62 | 06/25 | 11:00 | 78 | 61 | 58 | 30.27 | NE | 5 | 0.00 |
| 63 | 06/25 | 10:00 | 75 | 62 | 65 | 30.28 | ESE | 5 | 0.00 |
| 64 | 06/25 | 09:00 | 71 | 64 | 81 | 30.28 | NE | 3 | 0.00 |
| 65 | 06/25 | 08:00 | 67 | 62 | 86 | 30.26 | NW | 0 | 0.00 |
| 66 | 06/25 | 07:00 | 64 | 61 | 93 | 30.24 | NNE | 0 | 0.00 |
| 67 | 06/25 | 06:00 | 62 | 59 | 93 | 30.23 | NW | 0 | 0.00 |
| 68 | 06/25 | 05:00 | 63 | 60 | 93 | 30.22 | NW | 0 | 0.00 |
| 69 | 06/25 | 04:00 | 64 | 61 | 92 | 30.21 | NW | 0 | 0.00 |
| 70 | 06/25 | 03:00 | 64 | 61 | 92 | 30.21 | NW | 0 | 0.00 |
| 71 | 06/25 | 02:00 | 65 | 62 | 92 | 30.22 | NW | 0 | 0.00 |